sensor_id;sensor_type;location;lat;lon;timestamp;pressure;altitude;pressure_sealevel;temperature;humidity
1077;BME280;64114;48.726;9.370;2022-12-10T00:01:28;97531.53;;;4.15;99.55
1077;BME280;64114;48.726;9.370;2022-12-10T00:03:57;97534.09;;;4.18;99.33
1077;BME280;64114;48.726;9.370;2022-12-10T00:06:26;97524.88;;;4.25;98.80
1077;BME280;64114;48.726;9.370;2022-12-10T00:08:55;97518.94;;;4.25;98.25
1077;BME280;64114;48.726;9.370;2022-12-10T00:11:24;97522.38;;;4.28;98.35
1077;BME280;64114;48.726;9.370;2022-12-10T00:13:52;97508.84;;;4.29;97.86
1077;BME280;64114;48.726;9.370;2022-12-10T00:16:23;97520.66;;;4.27;97.11
1077;BME280;64114;48.726;9.370;2022-12-10T00:18:52;97518.13;;;4.27;96.95
1077;BME280;64114;48.726;9.370;2022-12-10T00:21:22;97491.59;;;3.99;97.10
1077;BME280;64114;48.726;9.370;2022-12-10T00:23:51;97523.16;;;4.24;96.83
1077;BME280;64114;48.726;9.370;2022-12-10T00:26:20;97513.84;;;4.22;97.09
1077;BME280;64114;48.726;9.370;2022-12-10T00:28:49;97513.81;;;4.20;97.02
1077;BME280;64114;48.726;9.370;2022-12-10T00:31:20;97515.56;;;4.23;96.70
1077;BME280;64114;48.726;9.370;2022-12-10T00:33:52;97512.16;;;4.20;96.63
1077;BME280;64114;48.726;9.370;2022-12-10T00:36:23;97502.88;;;4.24;96.82
1077;BME280;64114;48.726;9.370;2022-12-10T00:38:52;97515.59;;;4.27;96.38
1077;BME280;64114;48.726;9.370;2022-12-10T00:41:20;97478.06;;;3.98;95.50
1077;BME280;64114;48.726;9.370;2022-12-10T00:43:49;97512.06;;;4.16;95.37
1077;BME280;64114;48.726;9.370;2022-12-10T00:46:18;97518.00;;;4.16;95.67
1077;BME280;64114;48.726;9.370;2022-12-10T00:48:46;97521.34;;;4.12;95.96
1077;BME280;64114;48.726;9.370;2022-12-10T00:51:17;97522.97;;;4.09;96.41
1077;BME280;64114;48.726;9.370;2022-12-10T00:53:48;97525.47;;;4.05;96.73
1077;BME280;64114;48.726;9.370;2022-12-10T00:56:18;97522.06;;;4.02;97.56
1077;BME280;64114;48.726;9.370;2022-12-10T00:58:48;97527.13;;;4.02;97.53
1077;BME280;64114;48.726;9.370;2022-12-10T01:01:18;97519.50;;;3.99;97.58
1077;BME280;64114;48.726;9.370;2022-12-10T01:03:48;97536.47;;;4.04;97.94
1077;BME280;64114;48.726;9.370;2022-12-10T01:06:19;97529.00;;;4.15;98.11
1077;BME280;64114;48.726;9.370;2022-12-10T01:08:49;97538.28;;;4.13;97.86
1077;BME280;64114;48.726;9.370;2022-12-10T01:11:19;97550.09;;;4.13;97.93
1077;BME280;64114;48.726;9.370;2022-12-10T01:13:48;97539.06;;;4.11;97.63
1077;BME280;64114;48.726;9.370;2022-12-10T01:16:20;97541.56;;;4.06;97.77
1077;BME280;64114;48.726;9.370;2022-12-10T01:18:52;97545.84;;;4.10;97.37
1077;BME280;64114;48.726;9.370;2022-12-10T01:21:22;97546.69;;;4.09;97.47
1077;BME280;64114;48.726;9.370;2022-12-10T01:23:52;97560.19;;;4.08;97.91
1077;BME280;64114;48.726;9.370;2022-12-10T01:26:22;97564.44;;;4.09;97.90
1077;BME280;64114;48.726;9.370;2022-12-10T01:28:52;97559.41;;;4.14;98.33
1077;BME280;64114;48.726;9.370;2022-12-10T01:31:22;97569.44;;;4.04;98.03
1077;BME280;64114;48.726;9.370;2022-12-10T01:33:50;97569.34;;;3.98;99.04
1077;BME280;64114;48.726;9.370;2022-12-10T01:36:20;97566.06;;;4.04;98.94
1077;BME280;64114;48.726;9.370;2022-12-10T01:38:50;97570.22;;;4.00;98.85
1077;BME280;64114;48.726;9.370;2022-12-10T01:41:20;97573.66;;;4.04;98.97
1077;BME280;64114;48.726;9.370;2022-12-10T01:43:57;97586.41;;;4.10;99.23
1077;BME280;64114;48.726;9.370;2022-12-10T01:46:28;97586.38;;;4.09;99.13
1077;BME280;64114;48.726;9.370;2022-12-10T01:48:58;97587.22;;;4.08;99.41
1077;BME280;64114;48.726;9.370;2022-12-10T01:51:30;97588.06;;;4.06;99.49
1077;BME280;64114;48.726;9.370;2022-12-10T01:54:00;97591.53;;;4.13;98.98
1077;BME280;64114;48.726;9.370;2022-12-10T01:56:30;97598.31;;;4.14;99.26
1077;BME280;64114;48.726;9.370;2022-12-10T01:58:59;97597.31;;;4.03;99.78
1077;BME280;64114;48.726;9.370;2022-12-10T02:01:31;97603.31;;;4.08;99.78
1077;BME280;64114;48.726;9.370;2022-12-10T02:04:08;97592.38;;;4.12;100.00
1077;BME280;64114;48.726;9.370;2022-12-10T02:06:45;97577.09;;;4.09;99.69
1077;BME280;64114;48.726;9.370;2022-12-10T02:09:25;97579.69;;;4.14;99.43
1077;BME280;64114;48.726;9.370;2022-12-10T02:12:01;97581.41;;;4.15;99.90
1077;BME280;64114;48.726;9.370;2022-12-10T02:14:36;97584.75;;;4.14;99.84
1077;BME280;64114;48.726;9.370;2022-12-10T02:17:13;97587.31;;;4.14;99.79
1077;BME280;64114;48.726;9.370;2022-12-10T02:20:00;97580.56;;;4.14;100.00
1077;BME280;64114;48.726;9.370;2022-12-10T02:22:37;97583.97;;;4.16;99.91
1077;BME280;64114;48.726;9.370;2022-12-10T02:25:10;97582.25;;;4.15;99.36
1077;BME280;64114;48.726;9.370;2022-12-10T02:27:46;97584.81;;;4.17;99.54
1077;BME280;64114;48.726;9.370;2022-12-10T02:30:18;97579.78;;;4.20;99.15
1077;BME280;64114;48.726;9.370;2022-12-10T02:32:48;97576.41;;;4.21;98.78
1077;BME280;64114;48.726;9.370;2022-12-10T02:35:21;97572.16;;;4.20;97.95
1077;BME280;64114;48.726;9.370;2022-12-10T02:37:55;97571.31;;;4.19;97.76
1077;BME280;64114;48.726;9.370;2022-12-10T02:40:29;97561.97;;;4.17;97.31
1077;BME280;64114;48.726;9.370;2022-12-10T02:43:01;97562.09;;;4.25;97.16
1077;BME280;64114;48.726;9.370;2022-12-10T02:45:31;97560.34;;;4.22;96.62
1077;BME280;64114;48.726;9.370;2022-12-10T02:48:02;97561.13;;;4.16;97.01
1077;BME280;64114;48.726;9.370;2022-12-10T02:50:37;97556.06;;;4.18;96.38
1077;BME280;64114;48.726;9.370;2022-12-10T02:53:05;97562.94;;;4.28;96.10
1077;BME280;64114;48.726;9.370;2022-12-10T02:55:46;97556.91;;;4.17;95.98
1077;BME280;64114;48.726;9.370;2022-12-10T02:58:27;97545.00;;;4.13;95.58
1077;BME280;64114;48.726;9.370;2022-12-10T03:01:05;97534.06;;;4.15;95.58
1077;BME280;64114;48.726;9.370;2022-12-10T03:03:42;97533.28;;;4.21;95.67
1077;BME280;64114;48.726;9.370;2022-12-10T03:06:18;97544.28;;;4.23;95.34
1077;BME280;64114;48.726;9.370;2022-12-10T03:08:50;97546.00;;;4.24;95.26
1077;BME280;64114;48.726;9.370;2022-12-10T03:11:21;97549.41;;;4.25;94.85
1077;BME280;64114;48.726;9.370;2022-12-10T03:13:54;97550.22;;;4.24;94.46
1077;BME280;64114;48.726;9.370;2022-12-10T03:16:24;97546.78;;;4.20;94.57
1077;BME280;64114;48.726;9.370;2022-12-10T03:18:56;97541.75;;;4.23;94.85
1077;BME280;64114;48.726;9.370;2022-12-10T03:21:26;97517.09;;;4.11;94.74
1077;BME280;64114;48.726;9.370;2022-12-10T03:23:58;97529.94;;;4.25;94.35
1077;BME280;64114;48.726;9.370;2022-12-10T03:26:26;97533.34;;;4.27;93.69
1077;BME280;64114;48.726;9.370;2022-12-10T03:29:00;97514.53;;;4.10;94.25
1077;BME280;64114;48.726;9.370;2022-12-10T03:31:31;97540.13;;;4.27;94.36
1077;BME280;64114;48.726;9.370;2022-12-10T03:34:02;97541.72;;;4.20;94.24
1077;BME280;64114;48.726;9.370;2022-12-10T03:36:31;97535.75;;;4.15;94.56
1077;BME280;64114;48.726;9.370;2022-12-10T03:39:00;97526.41;;;4.12;94.67
1077;BME280;64114;48.726;9.370;2022-12-10T03:41:28;97528.19;;;4.21;94.15
1077;BME280;64114;48.726;9.370;2022-12-10T03:43:58;97524.00;;;4.22;94.34
1077;BME280;64114;48.726;9.370;2022-12-10T03:46:29;97521.41;;;4.18;94.11
1077;BME280;64114;48.726;9.370;2022-12-10T03:49:04;97520.44;;;4.07;94.68
1077;BME280;64114;48.726;9.370;2022-12-10T03:51:32;97523.81;;;4.06;94.64
1077;BME280;64114;48.726;9.370;2022-12-10T03:54:00;97502.56;;;3.98;94.77
1077;BME280;64114;48.726;9.370;2022-12-10T03:56:28;97522.19;;;4.13;94.58
1077;BME280;64114;48.726;9.370;2022-12-10T03:58:56;97533.19;;;4.15;94.05
1077;BME280;64114;48.726;9.370;2022-12-10T04:01:24;97551.94;;;4.26;93.57
1077;BME280;64114;48.726;9.370;2022-12-10T04:03:52;97561.25;;;4.27;93.02
1077;BME280;64114;48.726;9.370;2022-12-10T04:06:21;97550.22;;;4.24;92.44
1077;BME280;64114;48.726;9.370;2022-12-10T04:08:52;97559.59;;;4.28;92.11
1077;BME280;64114;48.726;9.370;2022-12-10T04:11:24;97557.03;;;4.29;91.66
1077;BME280;64114;48.726;9.370;2022-12-10T04:13:53;97563.00;;;4.30;91.57
1077;BME280;64114;48.726;9.370;2022-12-10T04:16:38;97564.66;;;4.29;91.52
1077;BME280;64114;48.726;9.370;2022-12-10T04:19:07;97564.63;;;4.26;91.40
1077;BME280;64114;48.726;9.370;2022-12-10T04:21:39;97573.88;;;4.21;91.92
1077;BME280;64114;48.726;9.370;2022-12-10T04:24:26;97575.63;;;4.28;91.61
1077;BME280;64114;48.726;9.370;2022-12-10T04:27:20;97569.78;;;4.32;91.48
1077;BME280;64114;48.726;9.370;2022-12-10T04:29:49;97575.69;;;4.30;91.81
1077;BME280;64114;48.726;9.370;2022-12-10T04:32:18;97578.91;;;4.18;92.15
1077;BME280;64114;48.726;9.370;2022-12-10T04:34:47;97581.38;;;4.13;93.04
1077;BME280;64114;48.726;9.370;2022-12-10T04:37:17;97578.84;;;4.13;93.10
1077;BME280;64114;48.726;9.370;2022-12-10T04:39:46;97586.50;;;4.16;93.20
1077;BME280;64114;48.726;9.370;2022-12-10T04:42:14;97593.28;;;4.19;93.40
1077;BME280;64114;48.726;9.370;2022-12-10T04:44:42;97578.78;;;4.09;93.43
1077;BME280;64114;48.726;9.370;2022-12-10T04:47:11;97590.81;;;4.24;93.58
1077;BME280;64114;48.726;9.370;2022-12-10T04:49:39;97595.91;;;4.24;93.74
1077;BME280;64114;48.726;9.370;2022-12-10T04:52:10;97580.53;;;4.13;93.70
1077;BME280;64114;48.726;9.370;2022-12-10T04:54:42;97589.06;;;4.19;93.42
1077;BME280;64114;48.726;9.370;2022-12-10T04:57:11;97607.72;;;4.22;94.00
1077;BME280;64114;48.726;9.370;2022-12-10T04:59:40;97594.03;;;4.10;93.95
1077;BME280;64114;48.726;9.370;2022-12-10T05:02:09;97595.78;;;4.14;94.21
1077;BME280;64114;48.726;9.370;2022-12-10T05:04:37;97583.19;;;4.22;93.87
1077;BME280;64114;48.726;9.370;2022-12-10T05:07:05;97587.38;;;4.20;93.93
1077;BME280;64114;48.726;9.370;2022-12-10T05:09:33;97592.53;;;4.26;93.60
1077;BME280;64114;48.726;9.370;2022-12-10T05:12:04;97589.94;;;4.23;93.08
1077;BME280;64114;48.726;9.370;2022-12-10T05:14:31;97587.47;;;4.26;92.30
1077;BME280;64114;48.726;9.370;2022-12-10T05:17:00;97589.91;;;4.18;92.55
1077;BME280;64114;48.726;9.370;2022-12-10T05:19:28;97586.50;;;4.16;93.04
1077;BME280;64114;48.726;9.370;2022-12-10T05:21:55;97580.53;;;4.11;93.35
1077;BME280;64114;48.726;9.370;2022-12-10T05:24:41;97584.88;;;4.22;93.44
1077;BME280;64114;48.726;9.370;2022-12-10T05:27:10;97578.13;;;4.24;94.29
1077;BME280;64114;48.726;9.370;2022-12-10T05:29:38;97558.53;;;4.10;93.21
1077;BME280;64114;48.726;9.370;2022-12-10T05:32:05;97584.88;;;4.23;92.39
1077;BME280;64114;48.726;9.370;2022-12-10T05:34:33;97588.00;;;4.03;93.19
1077;BME280;64114;48.726;9.370;2022-12-10T05:37:01;97575.38;;;4.06;94.12
1077;BME280;64114;48.726;9.370;2022-12-10T05:39:29;97593.25;;;4.14;93.92
1077;BME280;64114;48.726;9.370;2022-12-10T05:41:56;97588.16;;;4.16;94.35
1077;BME280;64114;48.726;9.370;2022-12-10T05:44:26;97571.97;;;4.04;94.46
1077;BME280;64114;48.726;9.370;2022-12-10T05:46:54;97583.03;;;4.10;95.05
1077;BME280;64114;48.726;9.370;2022-12-10T05:49:22;97583.81;;;4.04;95.38
1077;BME280;64114;48.726;9.370;2022-12-10T05:51:50;97571.97;;;4.04;95.52
1077;BME280;64114;48.726;9.370;2022-12-10T05:54:18;97597.44;;;4.14;93.64
1077;BME280;64114;48.726;9.370;2022-12-10T05:56:46;97604.97;;;4.08;92.59
1077;BME280;64114;48.726;9.370;2022-12-10T05:59:14;97601.66;;;4.12;92.41
1077;BME280;64114;48.726;9.370;2022-12-10T06:01:44;97604.22;;;4.13;92.56
1077;BME280;64114;48.726;9.370;2022-12-10T06:04:12;97611.03;;;4.17;92.87
1077;BME280;64114;48.726;9.370;2022-12-10T06:06:41;97611.88;;;4.18;93.01
1077;BME280;64114;48.726;9.370;2022-12-10T06:09:12;97610.16;;;4.15;93.60
1077;BME280;64114;48.726;9.370;2022-12-10T06:11:40;97611.00;;;4.16;93.80
1077;BME280;64114;48.726;9.370;2022-12-10T06:14:09;97583.81;;;4.04;93.45
1077;BME280;64114;48.726;9.370;2022-12-10T06:16:38;97614.44;;;4.19;93.06
1077;BME280;64114;48.726;9.370;2022-12-10T06:19:08;97611.03;;;4.17;92.78
1077;BME280;64114;48.726;9.370;2022-12-10T06:21:36;97609.47;;;4.26;91.77
1077;BME280;64114;48.726;9.370;2022-12-10T06:24:04;97609.34;;;4.18;91.53
1077;BME280;64114;48.726;9.370;2022-12-10T06:26:32;97617.66;;;4.08;91.85
1077;BME280;64114;48.726;9.370;2022-12-10T06:29:00;97615.06;;;4.03;92.02
1077;BME280;64114;48.726;9.370;2022-12-10T06:31:28;97620.22;;;4.11;92.30
1077;BME280;64114;48.726;9.370;2022-12-10T06:33:56;97627.00;;;4.12;92.49
1077;BME280;64114;48.726;9.370;2022-12-10T06:36:25;97637.94;;;4.08;92.29
1077;BME280;64114;48.726;9.370;2022-12-10T06:38:54;97643.88;;;4.08;92.07
1077;BME280;64114;48.726;9.370;2022-12-10T06:41:22;97637.16;;;4.10;91.05
1077;BME280;64114;48.726;9.370;2022-12-10T06:43:50;97634.56;;;4.07;91.06
1077;BME280;64114;48.726;9.370;2022-12-10T06:46:19;97634.53;;;4.05;91.34
1077;BME280;64114;48.726;9.370;2022-12-10T06:48:48;97636.31;;;4.11;91.76
1077;BME280;64114;48.726;9.370;2022-12-10T06:51:16;97651.38;;;3.99;91.35
1077;BME280;64114;48.726;9.370;2022-12-10T06:53:46;97637.97;;;4.09;91.07
1077;BME280;64114;48.726;9.370;2022-12-10T06:56:16;97643.09;;;4.14;90.76
1077;BME280;64114;48.726;9.370;2022-12-10T06:58:45;97637.78;;;3.95;91.01
1077;BME280;64114;48.726;9.370;2022-12-10T07:01:14;97648.28;;;3.63;92.46
1077;BME280;64114;48.726;9.370;2022-12-10T07:03:43;97648.06;;;3.49;94.07
1077;BME280;64114;48.726;9.370;2022-12-10T07:06:11;97635.78;;;3.74;93.14
1077;BME280;64114;48.726;9.370;2022-12-10T07:08:41;97649.34;;;3.78;93.07
1077;BME280;64114;48.726;9.370;2022-12-10T07:11:12;97648.31;;;3.65;93.18
1077;BME280;64114;48.726;9.370;2022-12-10T07:13:54;97652.63;;;3.70;93.36
1077;BME280;64114;48.726;9.370;2022-12-10T07:16:24;97644.97;;;3.67;93.49
1077;BME280;64114;48.726;9.370;2022-12-10T07:18:53;97662.91;;;3.80;93.09
1077;BME280;64114;48.726;9.370;2022-12-10T07:21:23;97663.22;;;4.00;92.59
1077;BME280;64114;48.726;9.370;2022-12-10T07:23:52;97643.16;;;3.58;93.48
1077;BME280;64114;48.726;9.370;2022-12-10T07:26:23;97661.31;;;3.86;92.57
1077;BME280;64114;48.726;9.370;2022-12-10T07:28:51;97665.47;;;3.83;92.71
1077;BME280;64114;48.726;9.370;2022-12-10T07:31:20;97659.75;;;3.95;92.47
1077;BME280;64114;48.726;9.370;2022-12-10T07:33:49;97674.19;;;4.00;92.08
1077;BME280;64114;48.726;9.370;2022-12-10T07:36:19;97675.81;;;3.95;91.47
1077;BME280;64114;48.726;9.370;2022-12-10T07:38:49;97679.31;;;4.02;91.52
1077;BME280;64114;48.726;9.370;2022-12-10T07:41:17;97674.25;;;4.03;91.55
1077;BME280;64114;48.726;9.370;2022-12-10T07:43:47;97677.75;;;4.12;90.93
1077;BME280;64114;48.726;9.370;2022-12-10T07:46:16;97664.91;;;4.01;90.58
1077;BME280;64114;48.726;9.370;2022-12-10T07:48:46;97678.47;;;4.04;91.06
1077;BME280;64114;48.726;9.370;2022-12-10T07:51:19;97682.81;;;4.10;91.66
1077;BME280;64114;48.726;9.370;2022-12-10T07:53:48;97688.63;;;4.04;91.29
1077;BME280;64114;48.726;9.370;2022-12-10T07:56:17;97651.19;;;3.88;91.02
1077;BME280;64114;48.726;9.370;2022-12-10T07:58:47;97682.91;;;4.18;90.81
1077;BME280;64114;48.726;9.370;2022-12-10T08:01:17;97681.66;;;3.89;90.29
1077;BME280;64114;48.726;9.370;2022-12-10T08:03:47;97685.94;;;3.95;91.36
1077;BME280;64114;48.726;9.370;2022-12-10T08:06:17;97694.66;;;4.11;90.73
1077;BME280;64114;48.726;9.370;2022-12-10T08:08:46;97697.13;;;4.06;90.94
1077;BME280;64114;48.726;9.370;2022-12-10T08:11:15;97694.56;;;4.06;90.91
1077;BME280;64114;48.726;9.370;2022-12-10T08:13:44;97704.81;;;4.13;91.41
1077;BME280;64114;48.726;9.370;2022-12-10T08:16:21;97704.81;;;4.13;91.06
1077;BME280;64114;48.726;9.370;2022-12-10T08:18:51;97706.69;;;4.25;90.60
1077;BME280;64114;48.726;9.370;2022-12-10T08:21:21;97703.88;;;4.08;91.13
1077;BME280;64114;48.726;9.370;2022-12-10T08:23:50;97708.31;;;4.21;90.38
1077;BME280;64114;48.726;9.370;2022-12-10T08:26:19;97703.84;;;4.03;90.44
1077;BME280;64114;48.726;9.370;2022-12-10T08:28:49;97700.63;;;4.15;90.28
1077;BME280;64114;48.726;9.370;2022-12-10T08:31:19;97705.81;;;4.24;89.50
1077;BME280;64114;48.726;9.370;2022-12-10T08:33:48;97701.47;;;4.15;89.74
1077;BME280;64114;48.726;9.370;2022-12-10T08:36:17;97696.22;;;4.04;90.25
1077;BME280;64114;48.726;9.370;2022-12-10T08:38:46;97697.28;;;4.19;89.85
1077;BME280;64114;48.726;9.370;2022-12-10T08:41:15;97685.44;;;4.18;89.02
1077;BME280;64114;48.726;9.370;2022-12-10T08:43:44;97706.06;;;4.41;87.89
1077;BME280;64114;48.726;9.370;2022-12-10T08:46:12;97713.44;;;4.23;88.45
1077;BME280;64114;48.726;9.370;2022-12-10T08:48:42;97706.84;;;4.35;86.64
1077;BME280;64114;48.726;9.370;2022-12-10T08:51:13;97724.50;;;4.29;86.27
1077;BME280;64114;48.726;9.370;2022-12-10T08:53:42;97717.81;;;4.34;86.42
1077;BME280;64114;48.726;9.370;2022-12-10T08:56:09;97726.25;;;4.33;86.90
1077;BME280;64114;48.726;9.370;2022-12-10T08:58:37;97722.97;;;4.41;85.66
1077;BME280;64114;48.726;9.370;2022-12-10T09:01:07;97727.91;;;4.30;86.23
1077;BME280;64114;48.726;9.370;2022-12-10T09:03:35;97726.25;;;4.32;86.18
1077;BME280;64114;48.726;9.370;2022-12-10T09:06:08;97730.34;;;4.24;85.98
1077;BME280;64114;48.726;9.370;2022-12-10T09:08:36;97713.22;;;4.09;86.34
1077;BME280;64114;48.726;9.370;2022-12-10T09:11:05;97694.34;;;3.89;87.47
1077;BME280;64114;48.726;9.370;2022-12-10T09:13:33;97701.13;;;3.92;87.10
1077;BME280;64114;48.726;9.370;2022-12-10T09:16:02;97727.03;;;4.29;85.26
1077;BME280;64114;48.726;9.370;2022-12-10T09:18:31;97740.75;;;4.41;85.35
1077;BME280;64114;48.726;9.370;2022-12-10T09:20:58;97738.13;;;4.34;84.50
1077;BME280;64114;48.726;9.370;2022-12-10T09:23:27;97751.63;;;4.32;85.46
1077;BME280;64114;48.726;9.370;2022-12-10T09:25:55;97752.50;;;4.35;86.10
1077;BME280;64114;48.726;9.370;2022-12-10T09:28:23;97732.81;;;4.17;86.55
1077;BME280;64114;48.726;9.370;2022-12-10T09:30:55;97746.41;;;4.24;86.43
1077;BME280;64114;48.726;9.370;2022-12-10T09:33:23;97750.94;;;4.42;85.59
1077;BME280;64114;48.726;9.370;2022-12-10T09:35:51;97751.75;;;4.43;86.01
1077;BME280;64114;48.726;9.370;2022-12-10T09:38:19;97753.44;;;4.41;84.92
1077;BME280;64114;48.726;9.370;2022-12-10T09:40:51;97755.03;;;4.34;85.37
1077;BME280;64114;48.726;9.370;2022-12-10T09:43:32;97757.53;;;4.31;85.00
1077;BME280;64114;48.726;9.370;2022-12-10T09:46:10;97748.34;;;4.41;84.17
1077;BME280;64114;48.726;9.370;2022-12-10T09:48:50;97738.16;;;4.36;84.28
1077;BME280;64114;48.726;9.370;2022-12-10T09:51:23;97749.13;;;4.35;84.44
1077;BME280;64114;48.726;9.370;2022-12-10T09:53:54;97759.25;;;4.33;84.52
1077;BME280;64114;48.726;9.370;2022-12-10T09:56:28;97757.66;;;4.40;84.21
1077;BME280;64114;48.726;9.370;2022-12-10T09:59:00;97720.91;;;4.13;83.85
1077;BME280;64114;48.726;9.370;2022-12-10T10:01:31;97708.22;;;4.13;83.81
1077;BME280;64114;48.726;9.370;2022-12-10T10:04:02;97747.38;;;4.31;84.82
1077;BME280;64114;48.726;9.370;2022-12-10T10:06:31;97750.75;;;4.30;84.97
1077;BME280;64114;48.726;9.370;2022-12-10T10:09:02;97745.81;;;4.39;84.46
1077;BME280;64114;48.726;9.370;2022-12-10T10:11:34;97726.81;;;4.14;84.48
1077;BME280;64114;48.726;9.370;2022-12-10T10:14:05;97750.13;;;4.46;83.83
1077;BME280;64114;48.726;9.370;2022-12-10T10:16:43;97758.41;;;4.33;84.89
1077;BME280;64114;48.726;9.370;2022-12-10T10:19:15;97758.50;;;4.41;83.65
1077;BME280;64114;48.726;9.370;2022-12-10T10:21:48;97750.72;;;4.28;83.56
1077;BME280;64114;48.726;9.370;2022-12-10T10:24:20;97749.28;;;4.46;83.13
1077;BME280;64114;48.726;9.370;2022-12-10T10:26:51;97735.47;;;4.27;83.40
1077;BME280;64114;48.726;9.370;2022-12-10T10:29:21;97747.56;;;4.43;83.76
1077;BME280;64114;48.726;9.370;2022-12-10T10:32:12;97749.19;;;4.40;83.24
1077;BME280;64114;48.726;9.370;2022-12-10T10:34:41;97748.38;;;4.42;84.15
1077;BME280;64114;48.726;9.370;2022-12-10T10:37:15;97742.25;;;4.29;84.82
1077;BME280;64114;48.726;9.370;2022-12-10T10:39:47;97755.00;;;4.31;85.57
1077;BME280;64114;48.726;9.370;2022-12-10T10:42:27;97750.09;;;4.45;84.78
1077;BME280;64114;48.726;9.370;2022-12-10T10:44:56;97744.09;;;4.38;84.82
1077;BME280;64114;48.726;9.370;2022-12-10T10:47:27;97746.59;;;4.37;84.98
1077;BME280;64114;48.726;9.370;2022-12-10T10:50:01;97747.56;;;4.45;84.79
1077;BME280;64114;48.726;9.370;2022-12-10T10:52:35;97749.53;;;4.66;83.74
1077;BME280;64114;48.726;9.370;2022-12-10T10:55:04;97772.75;;;4.31;84.56
1077;BME280;64114;48.726;9.370;2022-12-10T10:57:35;97768.56;;;4.33;84.56
1077;BME280;64114;48.726;9.370;2022-12-10T11:00:10;97769.06;;;4.12;86.17
1077;BME280;64114;48.726;9.370;2022-12-10T11:02:46;97774.09;;;4.09;86.19
1077;BME280;64114;48.726;9.370;2022-12-10T11:05:17;97770.22;;;4.31;84.64
1077;BME280;64114;48.726;9.370;2022-12-10T11:07:47;97773.63;;;4.33;84.44
1077;BME280;64114;48.726;9.370;2022-12-10T11:10:17;97764.03;;;4.15;84.93
1077;BME280;64114;48.726;9.370;2022-12-10T11:12:54;97783.09;;;4.45;84.61
1077;BME280;64114;48.726;9.370;2022-12-10T11:15:33;97781.84;;;4.18;84.23
1077;BME280;64114;48.726;9.370;2022-12-10T11:18:02;97776.81;;;4.21;85.09
1077;BME280;64114;48.726;9.370;2022-12-10T11:20:33;97774.94;;;4.09;84.93
1077;BME280;64114;48.726;9.370;2022-12-10T11:23:10;97784.81;;;3.92;85.52
1077;BME280;64114;48.726;9.370;2022-12-10T11:25:47;97785.97;;;4.13;84.96
1077;BME280;64114;48.726;9.370;2022-12-10T11:28:49;97775.84;;;4.13;84.05
1077;BME280;64114;48.726;9.370;2022-12-10T11:31:47;97784.66;;;4.37;83.36
1077;BME280;64114;48.726;9.370;2022-12-10T11:34:31;97767.78;;;4.39;81.75
1077;BME280;64114;48.726;9.370;2022-12-10T11:37:10;97794.72;;;4.30;82.80
1077;BME280;64114;48.726;9.370;2022-12-10T11:39:56;97783.91;;;3.88;83.07
1077;BME280;64114;48.726;9.370;2022-12-10T11:42:33;97767.44;;;3.66;83.32
1077;BME280;64114;48.726;9.370;2022-12-10T11:45:15;97785.66;;;3.93;84.05
1077;BME280;64114;48.726;9.370;2022-12-10T11:48:05;97784.13;;;4.01;83.65
1077;BME280;64114;48.726;9.370;2022-12-10T11:50:41;97775.00;;;4.12;82.91
1077;BME280;64114;48.726;9.370;2022-12-10T11:53:23;97774.13;;;4.12;83.26
1077;BME280;64114;48.726;9.370;2022-12-10T11:56:04;97777.28;;;3.97;82.79
1077;BME280;64114;48.726;9.370;2022-12-10T11:58:48;97782.16;;;3.84;83.84
1077;BME280;64114;48.726;9.370;2022-12-10T12:01:27;97788.31;;;3.99;84.00
1077;BME280;64114;48.726;9.370;2022-12-10T12:04:15;97778.31;;;4.10;83.74
1077;BME280;64114;48.726;9.370;2022-12-10T12:06:59;97773.69;;;4.38;81.71
1077;BME280;64114;48.726;9.370;2022-12-10T12:09:36;97772.03;;;4.40;81.06
1077;BME280;64114;48.726;9.370;2022-12-10T12:12:18;97771.13;;;4.36;81.59
1077;BME280;64114;48.726;9.370;2022-12-10T12:14:54;97776.13;;;4.30;81.66
1077;BME280;64114;48.726;9.370;2022-12-10T12:17:28;97781.06;;;4.22;81.92
1077;BME280;64114;48.726;9.370;2022-12-10T12:20:00;97787.97;;;4.32;81.72
1077;BME280;64114;48.726;9.370;2022-12-10T12:22:34;97793.19;;;4.42;80.59
1077;BME280;64114;48.726;9.370;2022-12-10T12:25:06;97799.28;;;3.99;81.08
1077;BME280;64114;48.726;9.370;2022-12-10T12:27:40;97808.09;;;4.20;80.85
1077;BME280;64114;48.726;9.370;2022-12-10T12:30:14;97813.72;;;4.03;81.96
1077;BME280;64114;48.726;9.370;2022-12-10T12:32:52;97813.56;;;3.93;82.00
1077;BME280;64114;48.726;9.370;2022-12-10T12:35:29;97811.66;;;3.81;82.86
1077;BME280;64114;48.726;9.370;2022-12-10T12:38:05;97821.38;;;4.05;82.46
1077;BME280;64114;48.726;9.370;2022-12-10T12:40:41;97818.91;;;4.08;81.65
1077;BME280;64114;48.726;9.370;2022-12-10T12:43:13;97819.91;;;3.70;82.07
1077;BME280;64114;48.726;9.370;2022-12-10T12:45:45;97799.34;;;3.53;84.07
1077;BME280;64114;48.726;9.370;2022-12-10T12:48:18;97813.41;;;3.83;82.72
1077;BME280;64114;48.726;9.370;2022-12-10T12:50:53;97819.56;;;3.99;81.51
1077;BME280;64114;48.726;9.370;2022-12-10T12:53:24;97816.31;;;4.05;82.07
1077;BME280;64114;48.726;9.370;2022-12-10T12:56:04;97825.69;;;4.09;81.42
1077;BME280;64114;48.726;9.370;2022-12-10T12:58:38;97822.25;;;4.07;81.56
1077;BME280;64114;48.726;9.370;2022-12-10T13:01:16;97829.44;;;4.33;81.16
1077;BME280;64114;48.726;9.370;2022-12-10T13:03:50;97813.72;;;4.03;81.00
1077;BME280;64114;48.726;9.370;2022-12-10T13:06:21;97844.56;;;4.27;80.09
1077;BME280;64114;48.726;9.370;2022-12-10T13:08:53;97811.59;;;3.76;81.81
1077;BME280;64114;48.726;9.370;2022-12-10T13:11:30;97843.22;;;3.98;81.29
1077;BME280;64114;48.726;9.370;2022-12-10T13:14:13;97841.41;;;3.91;81.93
1077;BME280;64114;48.726;9.370;2022-12-10T13:16:50;97849.63;;;3.78;81.35
1077;BME280;64114;48.726;9.370;2022-12-10T13:19:30;97809.66;;;3.63;81.25
1077;BME280;64114;48.726;9.370;2022-12-10T13:22:04;97831.44;;;3.99;81.35
1077;BME280;64114;48.726;9.370;2022-12-10T13:24:59;97841.94;;;4.22;80.96
1077;BME280;64114;48.726;9.370;2022-12-10T13:27:30;97825.22;;;4.33;80.03
1077;BME280;64114;48.726;9.370;2022-12-10T13:30:04;97846.91;;;4.16;79.19
1077;BME280;64114;48.726;9.370;2022-12-10T13:32:44;97843.03;;;4.37;79.32
1077;BME280;64114;48.726;9.370;2022-12-10T13:35:26;97848.88;;;4.31;80.42
1077;BME280;64114;48.726;9.370;2022-12-10T13:37:59;97852.84;;;4.16;80.57
1077;BME280;64114;48.726;9.370;2022-12-10T13:40:40;97846.38;;;3.85;81.09
1077;BME280;64114;48.726;9.370;2022-12-10T13:43:35;97863.78;;;4.12;81.21
1077;BME280;64114;48.726;9.370;2022-12-10T13:46:26;97877.19;;;4.05;81.14
1077;BME280;64114;48.726;9.370;2022-12-10T13:48:57;97876.13;;;3.94;81.40